sensor_id;sensor_type;location;lat;lon;timestamp;P1;durP1;ratioP1;P2;durP2;ratioP2
15293;SDS011;7748;52.474;13.454;2022-09-09T00:00:12;9.97;;;8.53;;
15293;SDS011;7748;52.474;13.454;2022-09-09T00:02:42;10.27;;;8.73;;
15293;SDS011;7748;52.474;13.454;2022-09-09T00:05:17;10.77;;;8.83;;
15293;SDS011;7748;52.474;13.454;2022-09-09T00:07:53;9.13;;;8.17;;
15293;SDS011;7748;52.474;13.454;2022-09-09T00:10:26;11.73;;;8.40;;
15293;SDS011;7748;52.474;13.454;2022-09-09T00:12:57;9.43;;;8.03;;
15293;SDS011;7748;52.474;13.454;2022-09-09T00:15:34;11.27;;;8.60;;
15293;SDS011;7748;52.474;13.454;2022-09-09T00:18:10;10.37;;;9.20;;
15293;SDS011;7748;52.474;13.454;2022-09-09T00:20:45;9.87;;;8.70;;
15293;SDS011;7748;52.474;13.454;2022-09-09T00:23:19;9.83;;;8.83;;
15293;SDS011;7748;52.474;13.454;2022-09-09T00:25:56;9.33;;;8.37;;
15293;SDS011;7748;52.474;13.454;2022-09-09T00:28:33;9.83;;;8.17;;
15293;SDS011;7748;52.474;13.454;2022-09-09T00:31:09;8.63;;;7.80;;
15293;SDS011;7748;52.474;13.454;2022-09-09T00:33:40;10.13;;;8.20;;
15293;SDS011;7748;52.474;13.454;2022-09-09T00:36:12;8.70;;;7.80;;
15293;SDS011;7748;52.474;13.454;2022-09-09T00:38:43;8.83;;;7.33;;
15293;SDS011;7748;52.474;13.454;2022-09-09T00:41:18;8.30;;;7.50;;
15293;SDS011;7748;52.474;13.454;2022-09-09T00:43:54;8.60;;;7.70;;
15293;SDS011;7748;52.474;13.454;2022-09-09T00:46:34;9.40;;;7.07;;
15293;SDS011;7748;52.474;13.454;2022-09-09T00:49:15;10.50;;;8.50;;
15293;SDS011;7748;52.474;13.454;2022-09-09T00:51:54;10.23;;;7.97;;
15293;SDS011;7748;52.474;13.454;2022-09-09T00:54:36;8.80;;;7.90;;
15293;SDS011;7748;52.474;13.454;2022-09-09T00:57:17;13.53;;;8.03;;
15293;SDS011;7748;52.474;13.454;2022-09-09T00:59:56;10.87;;;7.83;;
15293;SDS011;7748;52.474;13.454;2022-09-09T01:02:33;10.37;;;7.87;;
15293;SDS011;7748;52.474;13.454;2022-09-09T01:05:12;8.57;;;7.67;;
15293;SDS011;7748;52.474;13.454;2022-09-09T01:07:51;8.70;;;7.67;;
15293;SDS011;7748;52.474;13.454;2022-09-09T01:10:26;8.53;;;7.73;;
15293;SDS011;7748;52.474;13.454;2022-09-09T01:13:08;9.90;;;7.43;;
15293;SDS011;7748;52.474;13.454;2022-09-09T01:15:42;8.93;;;7.50;;
15293;SDS011;7748;52.474;13.454;2022-09-09T01:18:13;11.37;;;8.50;;
15293;SDS011;7748;52.474;13.454;2022-09-09T01:20:46;9.17;;;8.07;;
15293;SDS011;7748;52.474;13.454;2022-09-09T01:23:35;12.90;;;8.63;;
15293;SDS011;7748;52.474;13.454;2022-09-09T01:26:18;9.57;;;7.90;;
15293;SDS011;7748;52.474;13.454;2022-09-09T01:28:51;8.53;;;7.60;;
15293;SDS011;7748;52.474;13.454;2022-09-09T01:31:21;8.00;;;7.20;;
15293;SDS011;7748;52.474;13.454;2022-09-09T01:33:54;8.37;;;7.47;;
15293;SDS011;7748;52.474;13.454;2022-09-09T01:36:24;9.90;;;7.73;;
15293;SDS011;7748;52.474;13.454;2022-09-09T01:38:59;7.87;;;7.07;;
15293;SDS011;7748;52.474;13.454;2022-09-09T01:41:28;10.87;;;7.97;;
15293;SDS011;7748;52.474;13.454;2022-09-09T01:43:56;12.80;;;7.87;;
15293;SDS011;7748;52.474;13.454;2022-09-09T01:46:24;8.93;;;7.60;;
15293;SDS011;7748;52.474;13.454;2022-09-09T01:48:52;9.90;;;8.10;;
15293;SDS011;7748;52.474;13.454;2022-09-09T01:51:22;10.70;;;8.33;;
15293;SDS011;7748;52.474;13.454;2022-09-09T01:53:50;11.37;;;8.70;;
15293;SDS011;7748;52.474;13.454;2022-09-09T01:56:21;11.80;;;8.10;;
15293;SDS011;7748;52.474;13.454;2022-09-09T01:59:01;10.73;;;8.50;;
15293;SDS011;7748;52.474;13.454;2022-09-09T02:01:40;10.33;;;7.87;;
15293;SDS011;7748;52.474;13.454;2022-09-09T02:04:18;9.03;;;7.67;;
15293;SDS011;7748;52.474;13.454;2022-09-09T02:07:01;10.97;;;8.03;;
15293;SDS011;7748;52.474;13.454;2022-09-09T02:09:29;10.63;;;8.03;;
15293;SDS011;7748;52.474;13.454;2022-09-09T02:11:59;9.67;;;8.67;;
15293;SDS011;7748;52.474;13.454;2022-09-09T02:14:35;9.40;;;7.90;;
15293;SDS011;7748;52.474;13.454;2022-09-09T02:17:08;9.57;;;8.50;;
15293;SDS011;7748;52.474;13.454;2022-09-09T02:19:39;13.43;;;9.53;;
15293;SDS011;7748;52.474;13.454;2022-09-09T02:22:12;11.00;;;8.97;;
15293;SDS011;7748;52.474;13.454;2022-09-09T02:24:40;11.60;;;9.10;;
15293;SDS011;7748;52.474;13.454;2022-09-09T02:27:08;10.70;;;8.80;;
15293;SDS011;7748;52.474;13.454;2022-09-09T02:29:40;12.57;;;8.30;;
15293;SDS011;7748;52.474;13.454;2022-09-09T02:32:12;10.07;;;8.60;;
15293;SDS011;7748;52.474;13.454;2022-09-09T02:34:43;11.20;;;7.80;;
15293;SDS011;7748;52.474;13.454;2022-09-09T02:37:15;9.50;;;7.20;;
15293;SDS011;7748;52.474;13.454;2022-09-09T02:39:46;7.73;;;6.80;;
15293;SDS011;7748;52.474;13.454;2022-09-09T02:42:14;13.47;;;7.27;;
15293;SDS011;7748;52.474;13.454;2022-09-09T02:44:43;9.80;;;7.30;;
15293;SDS011;7748;52.474;13.454;2022-09-09T02:47:18;8.53;;;7.07;;
15293;SDS011;7748;52.474;13.454;2022-09-09T02:49:57;9.03;;;7.10;;
15293;SDS011;7748;52.474;13.454;2022-09-09T02:52:33;8.27;;;7.37;;
15293;SDS011;7748;52.474;13.454;2022-09-09T02:55:11;8.87;;;7.67;;
15293;SDS011;7748;52.474;13.454;2022-09-09T02:57:51;11.40;;;8.23;;
15293;SDS011;7748;52.474;13.454;2022-09-09T03:00:26;10.40;;;7.17;;
15293;SDS011;7748;52.474;13.454;2022-09-09T03:02:55;10.53;;;7.73;;
15293;SDS011;7748;52.474;13.454;2022-09-09T03:05:23;8.77;;;7.33;;
15293;SDS011;7748;52.474;13.454;2022-09-09T03:07:51;9.80;;;6.53;;
15293;SDS011;7748;52.474;13.454;2022-09-09T03:10:19;10.57;;;7.67;;
15293;SDS011;7748;52.474;13.454;2022-09-09T03:12:46;8.43;;;7.03;;
15293;SDS011;7748;52.474;13.454;2022-09-09T03:15:14;11.47;;;7.37;;
15293;SDS011;7748;52.474;13.454;2022-09-09T03:17:44;8.80;;;7.33;;
15293;SDS011;7748;52.474;13.454;2022-09-09T03:20:11;9.37;;;6.70;;
15293;SDS011;7748;52.474;13.454;2022-09-09T03:22:39;18.33;;;7.57;;
15293;SDS011;7748;52.474;13.454;2022-09-09T03:25:07;9.40;;;7.00;;
15293;SDS011;7748;52.474;13.454;2022-09-09T03:27:35;8.90;;;6.30;;
15293;SDS011;7748;52.474;13.454;2022-09-09T03:30:03;8.17;;;5.87;;
15293;SDS011;7748;52.474;13.454;2022-09-09T03:32:31;9.33;;;7.80;;
15293;SDS011;7748;52.474;13.454;2022-09-09T03:35:00;9.57;;;7.27;;
15293;SDS011;7748;52.474;13.454;2022-09-09T03:37:28;10.17;;;7.27;;
15293;SDS011;7748;52.474;13.454;2022-09-09T03:39:56;10.97;;;8.80;;
15293;SDS011;7748;52.474;13.454;2022-09-09T03:42:23;9.63;;;6.90;;
15293;SDS011;7748;52.474;13.454;2022-09-09T03:44:51;10.00;;;8.10;;
15293;SDS011;7748;52.474;13.454;2022-09-09T03:47:19;9.43;;;6.90;;
15293;SDS011;7748;52.474;13.454;2022-09-09T03:49:48;11.73;;;6.90;;
15293;SDS011;7748;52.474;13.454;2022-09-09T03:52:17;12.13;;;10.47;;
15293;SDS011;7748;52.474;13.454;2022-09-09T03:54:49;11.43;;;7.70;;
15293;SDS011;7748;52.474;13.454;2022-09-09T03:57:17;9.53;;;6.93;;
15293;SDS011;7748;52.474;13.454;2022-09-09T03:59:45;9.53;;;7.30;;
15293;SDS011;7748;52.474;13.454;2022-09-09T04:02:13;8.00;;;6.53;;
15293;SDS011;7748;52.474;13.454;2022-09-09T04:04:41;8.37;;;6.83;;
15293;SDS011;7748;52.474;13.454;2022-09-09T04:07:09;9.87;;;6.50;;
15293;SDS011;7748;52.474;13.454;2022-09-09T04:09:39;8.23;;;6.10;;
15293;SDS011;7748;52.474;13.454;2022-09-09T04:12:07;8.87;;;6.30;;
15293;SDS011;7748;52.474;13.454;2022-09-09T04:14:35;9.00;;;6.00;;
15293;SDS011;7748;52.474;13.454;2022-09-09T04:17:02;7.00;;;5.97;;
15293;SDS011;7748;52.474;13.454;2022-09-09T04:19:32;7.63;;;6.13;;
15293;SDS011;7748;52.474;13.454;2022-09-09T04:22:00;10.23;;;7.20;;
15293;SDS011;7748;52.474;13.454;2022-09-09T04:24:27;8.57;;;6.57;;
15293;SDS011;7748;52.474;13.454;2022-09-09T04:26:57;7.93;;;6.30;;
15293;SDS011;7748;52.474;13.454;2022-09-09T04:29:24;13.53;;;6.07;;
15293;SDS011;7748;52.474;13.454;2022-09-09T04:31:52;9.90;;;6.37;;
15293;SDS011;7748;52.474;13.454;2022-09-09T04:34:20;8.93;;;5.90;;
15293;SDS011;7748;52.474;13.454;2022-09-09T04:36:48;10.83;;;6.57;;
15293;SDS011;7748;52.474;13.454;2022-09-09T04:39:16;8.83;;;6.97;;
15293;SDS011;7748;52.474;13.454;2022-09-09T04:41:44;10.50;;;6.30;;
15293;SDS011;7748;52.474;13.454;2022-09-09T04:44:14;9.20;;;7.07;;
15293;SDS011;7748;52.474;13.454;2022-09-09T04:46:42;13.93;;;7.50;;
15293;SDS011;7748;52.474;13.454;2022-09-09T04:49:09;7.50;;;5.90;;
15293;SDS011;7748;52.474;13.454;2022-09-09T04:51:40;13.60;;;6.13;;
15293;SDS011;7748;52.474;13.454;2022-09-09T04:54:09;7.63;;;6.53;;
15293;SDS011;7748;52.474;13.454;2022-09-09T04:56:37;7.03;;;5.70;;
15293;SDS011;7748;52.474;13.454;2022-09-09T04:59:05;7.23;;;5.37;;
15293;SDS011;7748;52.474;13.454;2022-09-09T05:01:34;7.97;;;5.70;;
15293;SDS011;7748;52.474;13.454;2022-09-09T05:04:03;7.50;;;5.83;;
15293;SDS011;7748;52.474;13.454;2022-09-09T05:06:31;7.00;;;5.33;;
15293;SDS011;7748;52.474;13.454;2022-09-09T05:08:59;7.73;;;6.03;;
15293;SDS011;7748;52.474;13.454;2022-09-09T05:11:27;8.03;;;5.60;;
15293;SDS011;7748;52.474;13.454;2022-09-09T05:13:56;11.83;;;6.60;;
15293;SDS011;7748;52.474;13.454;2022-09-09T05:16:24;7.47;;;5.10;;
15293;SDS011;7748;52.474;13.454;2022-09-09T05:18:54;8.70;;;5.30;;
15293;SDS011;7748;52.474;13.454;2022-09-09T05:21:23;9.33;;;4.83;;
15293;SDS011;7748;52.474;13.454;2022-09-09T05:23:52;7.80;;;5.20;;
15293;SDS011;7748;52.474;13.454;2022-09-09T05:26:20;8.43;;;4.80;;
15293;SDS011;7748;52.474;13.454;2022-09-09T05:28:50;8.00;;;5.00;;
15293;SDS011;7748;52.474;13.454;2022-09-09T05:31:18;9.37;;;4.67;;
15293;SDS011;7748;52.474;13.454;2022-09-09T05:33:46;5.93;;;4.30;;
15293;SDS011;7748;52.474;13.454;2022-09-09T05:36:17;7.20;;;4.47;;
15293;SDS011;7748;52.474;13.454;2022-09-09T05:38:47;6.13;;;4.37;;
15293;SDS011;7748;52.474;13.454;2022-09-09T05:41:15;7.93;;;4.30;;
15293;SDS011;7748;52.474;13.454;2022-09-09T05:43:44;5.80;;;4.33;;
15293;SDS011;7748;52.474;13.454;2022-09-09T05:46:13;6.67;;;3.77;;
15293;SDS011;7748;52.474;13.454;2022-09-09T05:48:43;13.07;;;4.37;;
15293;SDS011;7748;52.474;13.454;2022-09-09T05:51:13;9.17;;;4.10;;
15293;SDS011;7748;52.474;13.454;2022-09-09T05:53:45;5.30;;;3.60;;
15293;SDS011;7748;52.474;13.454;2022-09-09T05:56:14;3.97;;;3.60;;
15293;SDS011;7748;52.474;13.454;2022-09-09T05:58:43;9.87;;;3.80;;
15293;SDS011;7748;52.474;13.454;2022-09-09T06:01:13;9.60;;;3.73;;
15293;SDS011;7748;52.474;13.454;2022-09-09T06:03:43;6.23;;;3.60;;
15293;SDS011;7748;52.474;13.454;2022-09-09T06:06:12;4.97;;;3.77;;
15293;SDS011;7748;52.474;13.454;2022-09-09T06:08:42;6.47;;;3.20;;
15293;SDS011;7748;52.474;13.454;2022-09-09T06:11:13;7.43;;;3.40;;
15293;SDS011;7748;52.474;13.454;2022-09-09T06:13:43;9.60;;;5.50;;
15293;SDS011;7748;52.474;13.454;2022-09-09T06:16:12;15.67;;;7.60;;
15293;SDS011;7748;52.474;13.454;2022-09-09T06:18:42;6.97;;;3.37;;
15293;SDS011;7748;52.474;13.454;2022-09-09T06:21:15;8.17;;;3.37;;
15293;SDS011;7748;52.474;13.454;2022-09-09T06:23:44;4.40;;;3.00;;
15293;SDS011;7748;52.474;13.454;2022-09-09T06:26:15;9.23;;;3.40;;
15293;SDS011;7748;52.474;13.454;2022-09-09T06:28:44;4.60;;;3.17;;
15293;SDS011;7748;52.474;13.454;2022-09-09T06:31:12;7.07;;;3.93;;
15293;SDS011;7748;52.474;13.454;2022-09-09T06:33:43;8.27;;;4.03;;
15293;SDS011;7748;52.474;13.454;2022-09-09T06:36:11;6.70;;;3.77;;
15293;SDS011;7748;52.474;13.454;2022-09-09T06:38:42;5.00;;;2.73;;
15293;SDS011;7748;52.474;13.454;2022-09-09T06:41:10;6.20;;;4.60;;
15293;SDS011;7748;52.474;13.454;2022-09-09T06:43:40;7.97;;;3.30;;
15293;SDS011;7748;52.474;13.454;2022-09-09T06:46:09;4.70;;;3.50;;
15293;SDS011;7748;52.474;13.454;2022-09-09T06:48:38;5.37;;;3.90;;
15293;SDS011;7748;52.474;13.454;2022-09-09T06:51:08;4.50;;;3.60;;
15293;SDS011;7748;52.474;13.454;2022-09-09T06:53:38;5.80;;;3.70;;
15293;SDS011;7748;52.474;13.454;2022-09-09T06:56:17;8.40;;;3.50;;
15293;SDS011;7748;52.474;13.454;2022-09-09T06:58:49;5.87;;;3.43;;
15293;SDS011;7748;52.474;13.454;2022-09-09T07:01:19;5.73;;;3.10;;
15293;SDS011;7748;52.474;13.454;2022-09-09T07:03:49;6.57;;;3.50;;
15293;SDS011;7748;52.474;13.454;2022-09-09T07:06:19;8.23;;;3.20;;
15293;SDS011;7748;52.474;13.454;2022-09-09T07:08:48;4.63;;;2.90;;
15293;SDS011;7748;52.474;13.454;2022-09-09T07:11:22;3.73;;;2.90;;
15293;SDS011;7748;52.474;13.454;2022-09-09T07:13:53;6.77;;;3.03;;
15293;SDS011;7748;52.474;13.454;2022-09-09T07:16:22;6.53;;;2.50;;
15293;SDS011;7748;52.474;13.454;2022-09-09T07:18:51;3.03;;;2.23;;
15293;SDS011;7748;52.474;13.454;2022-09-09T07:21:19;10.70;;;3.37;;
15293;SDS011;7748;52.474;13.454;2022-09-09T07:23:47;7.00;;;4.40;;
15293;SDS011;7748;52.474;13.454;2022-09-09T07:26:16;4.20;;;3.20;;
15293;SDS011;7748;52.474;13.454;2022-09-09T07:28:46;4.80;;;3.93;;
15293;SDS011;7748;52.474;13.454;2022-09-09T07:31:16;9.33;;;5.07;;
15293;SDS011;7748;52.474;13.454;2022-09-09T07:33:46;6.97;;;5.30;;
15293;SDS011;7748;52.474;13.454;2022-09-09T07:36:15;5.87;;;2.80;;
15293;SDS011;7748;52.474;13.454;2022-09-09T07:38:44;4.37;;;2.97;;
15293;SDS011;7748;52.474;13.454;2022-09-09T07:41:14;2.83;;;2.40;;
15293;SDS011;7748;52.474;13.454;2022-09-09T07:43:44;5.93;;;2.10;;
15293;SDS011;7748;52.474;13.454;2022-09-09T07:46:14;6.13;;;2.33;;
15293;SDS011;7748;52.474;13.454;2022-09-09T07:48:45;5.17;;;2.50;;
15293;SDS011;7748;52.474;13.454;2022-09-09T07:51:21;4.10;;;2.53;;
15293;SDS011;7748;52.474;13.454;2022-09-09T07:53:51;8.77;;;2.77;;
15293;SDS011;7748;52.474;13.454;2022-09-09T07:56:20;4.37;;;1.97;;
15293;SDS011;7748;52.474;13.454;2022-09-09T07:58:49;4.47;;;2.50;;
15293;SDS011;7748;52.474;13.454;2022-09-09T08:01:20;8.27;;;4.60;;
15293;SDS011;7748;52.474;13.454;2022-09-09T08:03:52;3.43;;;2.30;;
15293;SDS011;7748;52.474;13.454;2022-09-09T08:06:22;4.47;;;2.70;;
15293;SDS011;7748;52.474;13.454;2022-09-09T08:08:51;6.37;;;2.90;;
15293;SDS011;7748;52.474;13.454;2022-09-09T08:11:21;6.07;;;2.80;;
15293;SDS011;7748;52.474;13.454;2022-09-09T08:14:15;8.00;;;3.40;;
15293;SDS011;7748;52.474;13.454;2022-09-09T08:16:46;5.90;;;2.73;;
15293;SDS011;7748;52.474;13.454;2022-09-09T08:19:15;3.90;;;2.33;;
15293;SDS011;7748;52.474;13.454;2022-09-09T08:21:43;5.27;;;2.97;;
15293;SDS011;7748;52.474;13.454;2022-09-09T08:24:12;3.63;;;2.83;;
15293;SDS011;7748;52.474;13.454;2022-09-09T08:26:41;4.90;;;2.60;;
15293;SDS011;7748;52.474;13.454;2022-09-09T08:29:11;7.40;;;4.43;;
15293;SDS011;7748;52.474;13.454;2022-09-09T08:31:41;7.50;;;2.93;;
15293;SDS011;7748;52.474;13.454;2022-09-09T08:34:11;4.77;;;2.67;;
15293;SDS011;7748;52.474;13.454;2022-09-09T08:36:39;3.53;;;2.23;;
15293;SDS011;7748;52.474;13.454;2022-09-09T08:39:09;7.93;;;3.10;;
15293;SDS011;7748;52.474;13.454;2022-09-09T08:44:31;7.37;;;2.80;;
15293;SDS011;7748;52.474;13.454;2022-09-09T08:47:16;5.83;;;2.77;;
15293;SDS011;7748;52.474;13.454;2022-09-09T08:50:03;3.07;;;2.13;;
15293;SDS011;7748;52.474;13.454;2022-09-09T08:52:39;3.87;;;2.20;;
15293;SDS011;7748;52.474;13.454;2022-09-09T08:55:20;8.90;;;2.93;;
15293;SDS011;7748;52.474;13.454;2022-09-09T08:57:52;6.13;;;2.70;;
15293;SDS011;7748;52.474;13.454;2022-09-09T09:00:23;5.87;;;2.83;;
15293;SDS011;7748;52.474;13.454;2022-09-09T09:03:00;6.97;;;3.33;;
15293;SDS011;7748;52.474;13.454;2022-09-09T09:05:37;4.80;;;3.23;;
15293;SDS011;7748;52.474;13.454;2022-09-09T09:08:17;5.50;;;2.70;;
15293;SDS011;7748;52.474;13.454;2022-09-09T09:10:55;5.27;;;2.73;;
15293;SDS011;7748;52.474;13.454;2022-09-09T09:13:28;3.80;;;2.00;;
15293;SDS011;7748;52.474;13.454;2022-09-09T09:16:11;5.27;;;2.50;;
15293;SDS011;7748;52.474;13.454;2022-09-09T09:18:46;6.77;;;3.00;;
15293;SDS011;7748;52.474;13.454;2022-09-09T09:21:16;5.43;;;3.00;;
15293;SDS011;7748;52.474;13.454;2022-09-09T09:23:52;9.53;;;4.67;;
15293;SDS011;7748;52.474;13.454;2022-09-09T09:26:23;9.77;;;3.10;;
15293;SDS011;7748;52.474;13.454;2022-09-09T09:28:56;6.10;;;3.30;;
15293;SDS011;7748;52.474;13.454;2022-09-09T09:31:29;4.40;;;1.90;;
15293;SDS011;7748;52.474;13.454;2022-09-09T09:33:58;5.17;;;2.10;;
15293;SDS011;7748;52.474;13.454;2022-09-09T09:36:35;5.43;;;2.93;;
15293;SDS011;7748;52.474;13.454;2022-09-09T09:39:07;2.83;;;2.17;;
15293;SDS011;7748;52.474;13.454;2022-09-09T09:41:55;4.07;;;2.43;;
15293;SDS011;7748;52.474;13.454;2022-09-09T09:44:32;3.77;;;2.70;;
15293;SDS011;7748;52.474;13.454;2022-09-09T09:47:06;4.33;;;2.17;;
15293;SDS011;7748;52.474;13.454;2022-09-09T09:49:35;3.40;;;2.23;;
15293;SDS011;7748;52.474;13.454;2022-09-09T09:52:05;2.57;;;2.10;;
15293;SDS011;7748;52.474;13.454;2022-09-09T09:54:37;4.70;;;2.17;;
15293;SDS011;7748;52.474;13.454;2022-09-09T09:57:09;4.80;;;2.30;;
15293;SDS011;7748;52.474;13.454;2022-09-09T09:59:38;3.63;;;2.20;;
15293;SDS011;7748;52.474;13.454;2022-09-09T10:02:13;4.77;;;2.10;;
15293;SDS011;7748;52.474;13.454;2022-09-09T10:04:43;4.73;;;2.27;;
15293;SDS011;7748;52.474;13.454;2022-09-09T10:07:16;5.63;;;2.40;;
15293;SDS011;7748;52.474;13.454;2022-09-09T10:09:46;6.40;;;2.30;;
15293;SDS011;7748;52.474;13.454;2022-09-09T10:12:19;3.53;;;2.23;;
15293;SDS011;7748;52.474;13.454;2022-09-09T10:15:00;4.90;;;2.40;;
15293;SDS011;7748;52.474;13.454;2022-09-09T10:17:36;6.87;;;3.00;;
15293;SDS011;7748;52.474;13.454;2022-09-09T10:20:19;7.30;;;2.60;;
15293;SDS011;7748;52.474;13.454;2022-09-09T10:23:01;3.73;;;2.20;;
15293;SDS011;7748;52.474;13.454;2022-09-09T10:25:52;4.00;;;2.13;;
15293;SDS011;7748;52.474;13.454;2022-09-09T10:28:33;5.80;;;2.30;;
15293;SDS011;7748;52.474;13.454;2022-09-09T10:31:25;5.13;;;2.40;;
15293;SDS011;7748;52.474;13.454;2022-09-09T10:34:06;5.97;;;3.00;;
15293;SDS011;7748;52.474;13.454;2022-09-09T10:36:46;9.40;;;4.37;;
15293;SDS011;7748;52.474;13.454;2022-09-09T10:39:24;5.00;;;2.60;;
15293;SDS011;7748;52.474;13.454;2022-09-09T10:42:08;5.80;;;2.67;;
15293;SDS011;7748;52.474;13.454;2022-09-09T10:44:42;3.80;;;2.67;;
15293;SDS011;7748;52.474;13.454;2022-09-09T10:47:25;3.67;;;2.77;;
15293;SDS011;7748;52.474;13.454;2022-09-09T10:50:13;4.27;;;2.60;;
15293;SDS011;7748;52.474;13.454;2022-09-09T10:53:14;5.00;;;2.00;;
15293;SDS011;7748;52.474;13.454;2022-09-09T10:55:53;3.40;;;2.03;;
15293;SDS011;7748;52.474;13.454;2022-09-09T10:58:25;4.17;;;2.17;;
15293;SDS011;7748;52.474;13.454;2022-09-09T11:00:59;2.73;;;1.70;;
15293;SDS011;7748;52.474;13.454;2022-09-09T11:03:34;5.37;;;2.50;;
15293;SDS011;7748;52.474;13.454;2022-09-09T11:06:09;4.83;;;2.23;;
15293;SDS011;7748;52.474;13.454;2022-09-09T11:08:42;5.33;;;1.87;;
15293;SDS011;7748;52.474;13.454;2022-09-09T11:11:12;19.40;;;4.07;;
15293;SDS011;7748;52.474;13.454;2022-09-09T11:13:45;11.53;;;2.50;;
15293;SDS011;7748;52.474;13.454;2022-09-09T11:16:20;35.67;;;7.93;;
15293;SDS011;7748;52.474;13.454;2022-09-09T11:18:54;7.37;;;2.77;;
15293;SDS011;7748;52.474;13.454;2022-09-09T11:21:27;7.50;;;2.33;;
15293;SDS011;7748;52.474;13.454;2022-09-09T11:23:59;6.03;;;2.40;;
15293;SDS011;7748;52.474;13.454;2022-09-09T11:26:33;5.80;;;2.70;;
15293;SDS011;7748;52.474;13.454;2022-09-09T11:29:09;5.60;;;2.50;;
15293;SDS011;7748;52.474;13.454;2022-09-09T11:31:58;11.10;;;2.67;;
15293;SDS011;7748;52.474;13.454;2022-09-09T11:34:39;12.57;;;2.83;;
15293;SDS011;7748;52.474;13.454;2022-09-09T11:37:23;5.07;;;2.20;;
15293;SDS011;7748;52.474;13.454;2022-09-09T11:40:15;6.23;;;3.10;;
15293;SDS011;7748;52.474;13.454;2022-09-09T11:42:47;11.70;;;5.63;;
15293;SDS011;7748;52.474;13.454;2022-09-09T11:45:20;6.27;;;2.40;;
15293;SDS011;7748;52.474;13.454;2022-09-09T11:47:52;5.90;;;3.27;;
15293;SDS011;7748;52.474;13.454;2022-09-09T11:50:28;4.10;;;2.23;;
15293;SDS011;7748;52.474;13.454;2022-09-09T11:53:15;4.80;;;2.63;;
15293;SDS011;7748;52.474;13.454;2022-09-09T11:56:02;3.37;;;2.17;;
15293;SDS011;7748;52.474;13.454;2022-09-09T11:58:36;3.53;;;1.67;;
15293;SDS011;7748;52.474;13.454;2022-09-09T12:01:13;7.20;;;2.70;;
15293;SDS011;7748;52.474;13.454;2022-09-09T12:04:01;4.47;;;3.33;;
15293;SDS011;7748;52.474;13.454;2022-09-09T12:06:50;5.10;;;2.63;;
15293;SDS011;7748;52.474;13.454;2022-09-09T12:09:25;6.13;;;2.03;;
15293;SDS011;7748;52.474;13.454;2022-09-09T12:12:23;4.30;;;2.90;;
15293;SDS011;7748;52.474;13.454;2022-09-09T12:14:59;3.17;;;1.60;;
15293;SDS011;7748;52.474;13.454;2022-09-09T12:17:47;4.60;;;3.10;;
15293;SDS011;7748;52.474;13.454;2022-09-09T12:20:17;5.50;;;1.97;;
15293;SDS011;7748;52.474;13.454;2022-09-09T12:22:59;2.83;;;2.13;;
15293;SDS011;7748;52.474;13.454;2022-09-09T12:25:47;6.20;;;4.40;;
15293;SDS011;7748;52.474;13.454;2022-09-09T12:28:22;5.57;;;2.17;;
15293;SDS011;7748;52.474;13.454;2022-09-09T12:31:00;10.03;;;6.13;;
15293;SDS011;7748;52.474;13.454;2022-09-09T12:33:34;10.07;;;6.57;;
15293;SDS011;7748;52.474;13.454;2022-09-09T12:36:05;6.87;;;3.53;;
15293;SDS011;7748;52.474;13.454;2022-09-09T12:38:40;12.50;;;8.33;;
15293;SDS011;7748;52.474;13.454;2022-09-09T12:41:17;5.23;;;3.50;;
15293;SDS011;7748;52.474;13.454;2022-09-09T12:43:47;11.77;;;4.97;;
15293;SDS011;7748;52.474;13.454;2022-09-09T12:46:21;10.53;;;2.40;;
15293;SDS011;7748;52.474;13.454;2022-09-09T12:48:58;2.90;;;2.40;;
15293;SDS011;7748;52.474;13.454;2022-09-09T12:51:27;10.97;;;3.53;;
15293;SDS011;7748;52.474;13.454;2022-09-09T12:53:57;8.13;;;3.30;;
15293;SDS011;7748;52.474;13.454;2022-09-09T12:56:28;5.77;;;2.90;;
15293;SDS011;7748;52.474;13.454;2022-09-09T12:58:58;3.57;;;1.60;;
15293;SDS011;7748;52.474;13.454;2022-09-09T13:01:28;4.77;;;2.53;;
15293;SDS011;7748;52.474;13.454;2022-09-09T13:03:58;26.60;;;19.20;;
15293;SDS011;7748;52.474;13.454;2022-09-09T13:06:27;5.50;;;3.30;;
15293;SDS011;7748;52.474;13.454;2022-09-09T13:08:57;3.30;;;2.30;;
15293;SDS011;7748;52.474;13.454;2022-09-09T13:11:27;2.83;;;1.90;;
15293;SDS011;7748;52.474;13.454;2022-09-09T13:14:12;4.93;;;2.40;;
15293;SDS011;7748;52.474;13.454;2022-09-09T13:16:56;4.83;;;3.50;;
15293;SDS011;7748;52.474;13.454;2022-09-09T13:19:26;3.33;;;2.73;;
15293;SDS011;7748;52.474;13.454;2022-09-09T13:21:58;4.03;;;1.73;;
15293;SDS011;7748;52.474;13.454;2022-09-09T13:24:27;4.60;;;1.90;;
15293;SDS011;7748;52.474;13.454;2022-09-09T13:26:57;6.37;;;3.50;;
15293;SDS011;7748;52.474;13.454;2022-09-09T13:29:28;5.67;;;3.00;;
15293;SDS011;7748;52.474;13.454;2022-09-09T13:32:04;6.50;;;4.03;;
15293;SDS011;7748;52.474;13.454;2022-09-09T13:34:34;4.97;;;2.87;;
15293;SDS011;7748;52.474;13.454;2022-09-09T13:37:03;5.13;;;2.80;;
15293;SDS011;7748;52.474;13.454;2022-09-09T13:39:33;6.23;;;4.17;;
15293;SDS011;7748;52.474;13.454;2022-09-09T13:42:02;10.10;;;5.33;;
15293;SDS011;7748;52.474;13.454;2022-09-09T13:44:34;7.27;;;5.17;;
15293;SDS011;7748;52.474;13.454;2022-09-09T13:47:17;5.83;;;3.13;;
15293;SDS011;7748;52.474;13.454;2022-09-09T13:49:46;4.73;;;3.33;;
15293;SDS011;7748;52.474;13.454;2022-09-09T13:52:15;3.60;;;2.10;;
15293;SDS011;7748;52.474;13.454;2022-09-09T13:54:47;6.03;;;3.37;;
15293;SDS011;7748;52.474;13.454;2022-09-09T13:57:16;4.77;;;3.73;;
15293;SDS011;7748;52.474;13.454;2022-09-09T13:59:45;6.33;;;4.40;;
15293;SDS011;7748;52.474;13.454;2022-09-09T14:02:33;8.77;;;6.77;;
15293;SDS011;7748;52.474;13.454;2022-09-09T14:05:01;11.20;;;6.60;;
15293;SDS011;7748;52.474;13.454;2022-09-09T14:07:29;9.67;;;4.30;;
15293;SDS011;7748;52.474;13.454;2022-09-09T14:09:58;4.57;;;3.30;;
15293;SDS011;7748;52.474;13.454;2022-09-09T14:12:26;6.27;;;3.07;;
15293;SDS011;7748;52.474;13.454;2022-09-09T14:14:56;8.03;;;4.53;;
15293;SDS011;7748;52.474;13.454;2022-09-09T14:17:25;14.53;;;8.70;;
15293;SDS011;7748;52.474;13.454;2022-09-09T14:19:58;17.40;;;11.47;;
15293;SDS011;7748;52.474;13.454;2022-09-09T14:22:26;10.80;;;7.20;;
15293;SDS011;7748;52.474;13.454;2022-09-09T14:24:54;10.50;;;4.60;;
15293;SDS011;7748;52.474;13.454;2022-09-09T14:27:23;8.10;;;4.43;;
15293;SDS011;7748;52.474;13.454;2022-09-09T14:29:52;3.60;;;2.20;;
15293;SDS011;7748;52.474;13.454;2022-09-09T14:32:20;3.83;;;1.80;;
15293;SDS011;7748;52.474;13.454;2022-09-09T14:34:48;8.83;;;4.40;;
15293;SDS011;7748;52.474;13.454;2022-09-09T14:37:19;5.53;;;3.40;;
15293;SDS011;7748;52.474;13.454;2022-09-09T14:39:47;4.10;;;2.33;;
15293;SDS011;7748;52.474;13.454;2022-09-09T14:42:16;28.30;;;5.57;;
15293;SDS011;7748;52.474;13.454;2022-09-09T14:44:44;8.80;;;4.70;;
15293;SDS011;7748;52.474;13.454;2022-09-09T14:47:12;6.03;;;2.30;;
15293;SDS011;7748;52.474;13.454;2022-09-09T14:49:40;8.90;;;3.60;;
15293;SDS011;7748;52.474;13.454;2022-09-09T14:52:12;10.57;;;3.87;;
15293;SDS011;7748;52.474;13.454;2022-09-09T14:54:41;8.60;;;2.70;;
15293;SDS011;7748;52.474;13.454;2022-09-09T14:57:09;4.77;;;2.20;;
15293;SDS011;7748;52.474;13.454;2022-09-09T14:59:37;5.17;;;2.70;;
15293;SDS011;7748;52.474;13.454;2022-09-09T15:02:05;4.77;;;2.60;;
15293;SDS011;7748;52.474;13.454;2022-09-09T15:04:33;12.77;;;4.93;;
15293;SDS011;7748;52.474;13.454;2022-09-09T15:07:01;5.50;;;3.27;;
15293;SDS011;7748;52.474;13.454;2022-09-09T15:09:29;8.33;;;5.67;;
15293;SDS011;7748;52.474;13.454;2022-09-09T15:11:58;4.93;;;3.07;;
15293;SDS011;7748;52.474;13.454;2022-09-09T15:14:27;5.30;;;3.37;;
15293;SDS011;7748;52.474;13.454;2022-09-09T15:16:54;10.77;;;7.00;;
15293;SDS011;7748;52.474;13.454;2022-09-09T15:19:22;5.00;;;2.50;;